createdAt,value
2023-11-23T00:01:50.919Z,5.30
2023-11-23T00:04:17.548Z,4.78
2023-11-23T00:06:45.102Z,5.05
2023-11-23T00:09:11.953Z,5.40
2023-11-23T00:11:38.812Z,5.55
2023-11-23T00:14:05.561Z,5.10
2023-11-23T00:16:32.372Z,4.97
2023-11-23T00:18:58.999Z,5.50
2023-11-23T00:21:25.746Z,4.85
2023-11-23T00:23:54.378Z,4.30
2023-11-23T00:26:21.001Z,5.63
2023-11-23T00:28:47.501Z,5.35
2023-11-23T00:31:14.046Z,5.07
2023-11-23T00:33:40.769Z,5.47
2023-11-23T00:36:08.044Z,5.18
2023-11-23T00:38:35.068Z,5.05
2023-11-23T00:41:04.396Z,5.55
2023-11-23T00:43:30.941Z,5.40
2023-11-23T00:45:57.590Z,5.13
2023-11-23T00:48:24.267Z,5.35
2023-11-23T00:50:50.926Z,4.97
2023-11-23T00:53:17.448Z,4.93
2023-11-23T00:55:44.373Z,4.57
2023-11-23T00:58:10.933Z,4.88
2023-11-23T01:00:37.720Z,5.25
2023-11-23T01:03:04.665Z,3.40
2023-11-23T01:05:31.363Z,4.38
2023-11-23T01:07:58.000Z,4.15
2023-11-23T01:10:26.033Z,5.82
2023-11-23T01:12:52.602Z,4.60
2023-11-23T01:15:19.915Z,2.78
2023-11-23T01:17:46.505Z,6.32
2023-11-23T01:20:13.236Z,5.57
2023-11-23T01:22:39.799Z,5.45
2023-11-23T01:25:09.988Z,6.50
2023-11-23T01:27:37.300Z,5.85
2023-11-23T01:30:07.142Z,6.43
2023-11-23T01:32:34.170Z,5.47
2023-11-23T01:35:00.859Z,4.68
2023-11-23T01:37:27.432Z,5.75
2023-11-23T01:39:54.257Z,5.90
2023-11-23T01:42:21.109Z,4.82
2023-11-23T01:44:48.547Z,5.40
2023-11-23T01:47:15.733Z,5.85
2023-11-23T01:49:45.559Z,5.80
2023-11-23T01:52:13.036Z,5.03
2023-11-23T01:54:39.854Z,3.80
2023-11-23T01:57:08.549Z,5.95
2023-11-23T01:59:37.053Z,6.10
2023-11-23T02:02:06.293Z,5.30
2023-11-23T02:04:33.573Z,6.35
2023-11-23T02:07:00.950Z,6.15
2023-11-23T02:09:29.907Z,5.78
2023-11-23T02:11:57.120Z,5.45
2023-11-23T02:14:23.851Z,5.72
2023-11-23T02:16:50.395Z,6.03
2023-11-23T02:19:17.993Z,4.80
2023-11-23T02:21:44.782Z,5.55
2023-11-23T02:24:14.694Z,5.40
2023-11-23T02:26:41.286Z,6.07
2023-11-23T02:29:07.888Z,4.47
2023-11-23T02:31:34.545Z,6.47
2023-11-23T02:34:03.910Z,5.82
2023-11-23T02:36:30.482Z,6.25
2023-11-23T02:38:57.021Z,6.20
2023-11-23T02:41:23.687Z,6.40
2023-11-23T02:43:50.177Z,6.18
2023-11-23T02:46:16.787Z,6.55
2023-11-23T02:48:43.494Z,6.45
2023-11-23T02:51:10.436Z,6.15
2023-11-23T02:53:44.846Z,5.43
2023-11-23T02:56:12.176Z,6.38
2023-11-23T02:58:40.442Z,4.80
2023-11-23T03:01:07.103Z,6.20
2023-11-23T03:03:33.772Z,6.50
2023-11-23T03:06:01.227Z,5.63
2023-11-23T03:08:29.016Z,6.72
2023-11-23T03:10:55.659Z,6.47
2023-11-23T03:13:22.756Z,6.35
2023-11-23T03:15:52.601Z,6.13
2023-11-23T03:18:19.521Z,6.22
2023-11-23T03:20:47.277Z,5.57
2023-11-23T03:23:14.086Z,6.18
2023-11-23T03:25:40.961Z,6.47
2023-11-23T03:28:08.571Z,5.80
2023-11-23T03:30:37.203Z,5.55
2023-11-23T03:33:04.463Z,5.78
2023-11-23T03:35:31.057Z,5.30
2023-11-23T03:37:57.670Z,4.43
2023-11-23T03:40:24.240Z,6.68
2023-11-23T03:42:50.815Z,6.00
2023-11-23T03:45:17.742Z,6.00
2023-11-23T03:47:44.511Z,4.50
2023-11-23T03:50:14.312Z,5.45
2023-11-23T03:52:41.287Z,6.03
2023-11-23T03:55:09.479Z,5.88
2023-11-23T03:57:37.985Z,5.97
2023-11-23T04:00:06.259Z,6.50
2023-11-23T04:02:34.090Z,6.22
2023-11-23T04:05:00.826Z,6.32
2023-11-23T04:07:27.382Z,6.25
2023-11-23T04:09:53.955Z,5.78
2023-11-23T04:12:20.531Z,5.13
2023-11-23T04:14:47.174Z,6.35
2023-11-23T04:17:14.336Z,5.43
2023-11-23T04:19:41.362Z,6.32
2023-11-23T04:22:08.076Z,5.78
2023-11-23T04:24:38.697Z,6.07
2023-11-23T04:27:05.801Z,6.20
2023-11-23T04:29:32.456Z,4.75
2023-11-23T04:31:59.070Z,6.22
2023-11-23T04:34:25.673Z,6.47
2023-11-23T04:36:54.846Z,6.25
2023-11-23T04:39:21.469Z,6.40
2023-11-23T04:41:48.024Z,4.80
2023-11-23T04:44:14.548Z,6.22
2023-11-23T04:46:42.347Z,5.93
2023-11-23T04:49:08.983Z,4.65
2023-11-23T04:51:35.521Z,6.57
2023-11-23T04:54:02.106Z,5.70
2023-11-23T04:56:28.725Z,6.07
2023-11-23T04:58:55.247Z,4.68
2023-11-23T05:01:21.820Z,5.78
2023-11-23T05:03:48.477Z,6.30
2023-11-23T05:06:16.741Z,5.22
2023-11-23T05:08:43.723Z,4.88
2023-11-23T05:11:10.241Z,5.20
2023-11-23T05:13:36.739Z,6.00
2023-11-23T05:16:03.450Z,6.57
2023-11-23T05:18:30.087Z,6.53
2023-11-23T05:20:56.815Z,6.53
2023-11-23T05:23:23.407Z,6.18
2023-11-23T05:25:50.622Z,5.78
2023-11-23T05:28:17.567Z,5.88
2023-11-23T05:30:46.833Z,6.30
2023-11-23T05:33:13.552Z,6.70
2023-11-23T05:35:40.187Z,6.47
2023-11-23T05:38:06.791Z,5.47
2023-11-23T05:40:33.512Z,6.65
2023-11-23T05:43:05.406Z,6.28
2023-11-23T05:45:33.463Z,6.35
2023-11-23T05:48:00.270Z,7.10
2023-11-23T05:50:27.105Z,7.25
2023-11-23T05:52:53.729Z,6.75
2023-11-23T05:55:20.246Z,6.75
2023-11-23T05:57:46.877Z,7.05
2023-11-23T06:00:15.506Z,6.32
2023-11-23T06:02:42.452Z,6.82
2023-11-23T06:05:10.015Z,7.15
2023-11-23T06:07:36.693Z,5.63
2023-11-23T06:10:06.096Z,7.25
2023-11-23T06:12:32.878Z,6.60
2023-11-23T06:14:59.470Z,7.38
2023-11-23T06:17:26.099Z,6.93
2023-11-23T06:19:52.707Z,6.57
2023-11-23T06:22:19.602Z,7.30
2023-11-23T06:24:46.157Z,6.13
2023-11-23T06:27:13.020Z,7.03
2023-11-23T06:29:39.592Z,6.53
2023-11-23T06:32:07.154Z,7.43
2023-11-23T06:34:33.944Z,6.10
2023-11-23T06:37:01.063Z,6.63
2023-11-23T06:39:27.922Z,7.78
2023-11-23T06:41:55.382Z,7.13
2023-11-23T06:44:22.998Z,7.60
2023-11-23T06:46:50.008Z,7.00
2023-11-23T06:49:16.600Z,7.55
2023-11-23T06:51:43.168Z,7.03
2023-11-23T06:54:12.576Z,6.43
2023-11-23T06:56:39.289Z,7.38
2023-11-23T06:59:05.868Z,7.32
2023-11-23T07:01:33.067Z,7.15
2023-11-23T07:03:59.732Z,6.78
2023-11-23T07:06:27.750Z,6.53
2023-11-23T07:08:55.341Z,7.65
2023-11-23T07:11:23.013Z,7.63
2023-11-23T07:13:50.848Z,7.07
2023-11-23T07:16:17.589Z,6.43
2023-11-23T07:18:44.635Z,7.53
2023-11-23T07:21:11.304Z,7.07
2023-11-23T07:23:38.021Z,7.80
2023-11-23T07:26:05.013Z,6.65
2023-11-23T07:28:33.445Z,5.88
2023-11-23T07:31:02.222Z,6.47
2023-11-23T07:33:35.815Z,6.60
2023-11-23T07:36:04.688Z,5.65
2023-11-23T07:38:31.858Z,6.22
2023-11-23T07:40:58.390Z,5.82
2023-11-23T07:43:25.047Z,6.10
2023-11-23T07:45:51.926Z,6.35
2023-11-23T07:48:19.548Z,5.38
2023-11-23T07:50:46.418Z,6.10
2023-11-23T07:53:13.155Z,6.10
2023-11-23T07:55:39.848Z,6.07
2023-11-23T07:58:09.286Z,5.53
2023-11-23T08:00:39.205Z,6.43
2023-11-23T08:03:06.701Z,5.88
2023-11-23T08:05:33.347Z,6.82
2023-11-23T08:07:59.931Z,6.38
2023-11-23T08:10:26.533Z,6.25
2023-11-23T08:12:55.071Z,6.20
2023-11-23T08:15:22.628Z,6.80
2023-11-23T08:17:58.193Z,6.38
2023-11-23T08:20:28.611Z,5.93
2023-11-23T08:22:55.476Z,5.95
2023-11-23T08:25:22.441Z,6.10
2023-11-23T08:27:48.997Z,6.60
2023-11-23T08:30:16.971Z,5.55
2023-11-23T08:32:43.644Z,6.82
2023-11-23T08:35:10.269Z,6.10
2023-11-23T08:37:37.020Z,5.57
2023-11-23T08:40:06.217Z,5.45
2023-11-23T08:42:34.594Z,6.63
2023-11-23T08:45:02.380Z,6.90
2023-11-23T08:47:29.298Z,6.68
2023-11-23T08:49:56.583Z,5.47
2023-11-23T08:52:23.534Z,6.22
2023-11-23T08:54:50.359Z,5.82
2023-11-23T08:57:16.948Z,6.45
2023-11-23T08:59:43.544Z,6.72
2023-11-23T09:02:19.345Z,6.05
2023-11-23T09:04:47.786Z,6.55
2023-11-23T09:07:14.579Z,6.18
2023-11-23T09:09:41.771Z,6.05
2023-11-23T09:12:08.835Z,6.57
2023-11-23T09:14:46.097Z,6.20
2023-11-23T09:17:16.201Z,6.65
2023-11-23T09:19:43.308Z,5.50
2023-11-23T09:22:11.865Z,7.20
2023-11-23T09:24:39.736Z,6.30
2023-11-23T09:27:13.666Z,6.25
2023-11-23T09:29:40.553Z,5.32
2023-11-23T09:32:07.681Z,6.13
2023-11-23T09:34:34.424Z,6.90
2023-11-23T09:37:01.163Z,6.65
2023-11-23T09:39:31.168Z,5.07
2023-11-23T09:41:59.808Z,6.75
2023-11-23T09:44:29.641Z,6.53
2023-11-23T09:46:57.969Z,6.43
2023-11-23T09:49:25.965Z,6.05
2023-11-23T09:51:56.521Z,6.07
2023-11-23T09:54:29.481Z,6.85
2023-11-23T09:56:56.730Z,6.63
2023-11-23T09:59:24.890Z,6.35
2023-11-23T10:01:55.732Z,4.82
2023-11-23T10:04:22.668Z,6.95
2023-11-23T10:06:49.307Z,6.72
2023-11-23T10:09:16.774Z,4.82
2023-11-23T10:11:44.027Z,6.35
2023-11-23T10:14:12.096Z,6.22
2023-11-23T10:16:38.730Z,6.97
2023-11-23T10:19:06.198Z,6.68
2023-11-23T10:21:32.987Z,6.57
2023-11-23T10:24:09.179Z,5.15
2023-11-23T10:29:02.532Z,6.15
2023-11-23T10:31:31.953Z,7.38
2023-11-23T10:34:00.125Z,7.20
2023-11-23T10:36:27.509Z,6.20
2023-11-23T10:38:57.114Z,5.13
2023-11-23T10:41:23.778Z,5.85
2023-11-23T10:43:50.951Z,4.93
2023-11-23T10:46:24.882Z,6.60
2023-11-23T10:48:53.590Z,6.43
2023-11-23T10:51:25.301Z,6.47
2023-11-23T10:53:51.923Z,4.72
2023-11-23T10:56:22.114Z,6.18
2023-11-23T10:58:53.545Z,5.93
2023-11-23T11:01:23.697Z,4.30
2023-11-23T11:03:51.299Z,4.88
2023-11-23T11:06:19.065Z,3.85
2023-11-23T11:08:51.002Z,5.10
2023-11-23T11:11:25.383Z,5.00
2023-11-23T11:14:04.015Z,5.78
2023-11-23T11:16:35.633Z,5.03
2023-11-23T11:19:10.971Z,3.50
2023-11-23T11:21:44.954Z,4.38
2023-11-23T11:24:23.269Z,4.13
2023-11-23T11:26:50.750Z,4.07
2023-11-23T11:29:18.431Z,4.63
2023-11-23T11:31:50.530Z,4.15
2023-11-23T11:34:22.460Z,4.90
2023-11-23T11:36:59.775Z,4.10
2023-11-23T11:39:37.036Z,3.90
2023-11-23T11:42:08.441Z,3.90
2023-11-23T11:44:36.372Z,4.22
2023-11-23T11:47:05.858Z,4.28
2023-11-23T11:49:32.446Z,4.82
2023-11-23T11:51:59.497Z,3.35
2023-11-23T11:54:26.487Z,3.80
2023-11-23T11:56:54.077Z,3.50
2023-11-23T11:59:22.167Z,3.25
2023-11-23T12:01:50.164Z,3.97
2023-11-23T12:04:17.709Z,3.50
2023-11-23T12:06:51.860Z,3.33
2023-11-23T12:09:34.570Z,3.10
2023-11-23T12:12:11.470Z,3.13
2023-11-23T12:14:38.629Z,3.03
2023-11-23T12:17:13.491Z,3.45
2023-11-23T12:19:59.064Z,3.35
2023-11-23T12:22:28.450Z,3.20
2023-11-23T12:25:00.459Z,3.40
2023-11-23T12:27:27.977Z,3.30
2023-11-23T12:29:55.125Z,3.00
2023-11-23T12:32:22.786Z,2.60
2023-11-23T12:34:49.446Z,3.00
2023-11-23T12:37:16.519Z,2.67
2023-11-23T12:39:43.182Z,3.15
2023-11-23T12:42:09.810Z,2.75
2023-11-23T12:44:36.879Z,3.13
2023-11-23T12:47:04.007Z,2.75
2023-11-23T12:49:30.701Z,2.88
2023-11-23T12:51:57.385Z,2.75
2023-11-23T12:54:23.998Z,2.67
2023-11-23T12:56:52.758Z,2.30
2023-11-23T12:59:19.381Z,2.53
2023-11-23T13:01:46.014Z,2.47
2023-11-23T13:04:14.050Z,2.83
2023-11-23T13:06:41.179Z,2.65
2023-11-23T13:09:13.059Z,2.38
2023-11-23T13:11:41.047Z,2.70
2023-11-23T13:14:08.731Z,2.72
2023-11-23T13:16:35.903Z,2.58
2023-11-23T13:19:15.892Z,2.47
2023-11-23T13:21:50.687Z,2.90
2023-11-23T13:24:17.515Z,2.70
2023-11-23T13:26:44.151Z,2.92
2023-11-23T13:29:11.498Z,2.40
2023-11-23T13:31:39.926Z,2.33
2023-11-23T13:34:08.633Z,2.53
2023-11-23T13:36:36.773Z,2.63
2023-11-23T13:39:04.633Z,1.85
2023-11-23T13:41:32.102Z,2.40
2023-11-23T13:43:59.722Z,2.17
2023-11-23T13:46:27.081Z,2.35
2023-11-23T13:48:54.477Z,1.90
2023-11-23T13:51:23.103Z,2.00
2023-11-23T13:53:51.246Z,2.20
2023-11-23T13:56:17.868Z,2.30
2023-11-23T13:58:45.297Z,2.05
2023-11-23T14:01:16.482Z,2.03
2023-11-23T14:03:43.831Z,2.25
2023-11-23T14:06:12.843Z,1.83
2023-11-23T14:11:07.166Z,1.90
2023-11-23T14:13:34.014Z,2.00
2023-11-23T14:16:00.851Z,1.58
2023-11-23T14:18:29.977Z,1.80
2023-11-23T14:20:56.802Z,2.22
2023-11-23T14:23:23.385Z,2.00
2023-11-23T14:25:51.237Z,1.83
2023-11-23T14:28:18.768Z,1.67
2023-11-23T14:30:45.821Z,1.42
2023-11-23T14:33:12.697Z,2.40
2023-11-23T14:35:39.624Z,2.20
2023-11-23T14:38:07.011Z,1.80
2023-11-23T14:40:35.084Z,1.90
2023-11-23T14:43:02.926Z,2.00
2023-11-23T14:45:33.072Z,1.83
2023-11-23T14:48:00.292Z,1.73
2023-11-23T14:50:30.055Z,1.92
2023-11-23T14:52:59.334Z,1.60
2023-11-23T14:55:26.378Z,1.88
2023-11-23T14:57:53.104Z,1.63
2023-11-23T15:00:20.062Z,2.03
2023-11-23T15:02:47.068Z,1.83
2023-11-23T15:05:14.168Z,1.92
2023-11-23T15:07:41.252Z,2.40
2023-11-23T15:10:13.377Z,2.10
2023-11-23T15:12:41.152Z,1.83
2023-11-23T15:15:08.501Z,2.42
2023-11-23T15:17:35.274Z,2.28
2023-11-23T15:20:01.874Z,1.80
2023-11-23T15:22:28.898Z,2.35
2023-11-23T15:25:05.864Z,2.38
2023-11-23T15:27:36.766Z,2.40
2023-11-23T15:30:04.324Z,2.15
2023-11-23T15:32:31.573Z,2.40
2023-11-23T15:34:58.316Z,2.30
2023-11-23T15:37:24.936Z,2.00
2023-11-23T15:39:51.649Z,2.47
2023-11-23T15:42:18.397Z,2.22
2023-11-23T15:44:45.047Z,2.38
2023-11-23T15:47:13.029Z,2.15
2023-11-23T15:49:39.700Z,2.22
2023-11-23T15:52:07.322Z,2.33
2023-11-23T15:54:33.989Z,2.50
2023-11-23T15:57:01.077Z,2.38
2023-11-23T15:59:28.098Z,2.63
2023-11-23T16:01:54.941Z,2.70
2023-11-23T16:04:22.398Z,2.60
2023-11-23T16:06:49.439Z,2.60
2023-11-23T16:09:20.419Z,2.47
2023-11-23T16:11:47.536Z,2.22
2023-11-23T16:14:14.191Z,2.13
2023-11-23T16:16:40.875Z,2.30
2023-11-23T16:19:08.059Z,2.50
2023-11-23T16:21:34.676Z,2.83
2023-11-23T16:24:01.404Z,2.38
2023-11-23T16:26:32.297Z,2.67
2023-11-23T16:29:01.977Z,2.60
2023-11-23T16:31:28.736Z,2.25
2023-11-23T16:33:57.479Z,2.78
2023-11-23T16:36:33.070Z,2.70
2023-11-23T16:39:05.751Z,2.67
2023-11-23T16:41:32.571Z,2.22
2023-11-23T16:43:59.199Z,2.60
2023-11-23T16:46:25.908Z,2.50
2023-11-23T16:48:52.742Z,2.65
2023-11-23T16:51:20.289Z,3.13
2023-11-23T16:53:47.115Z,2.92
2023-11-23T16:56:14.353Z,2.58
2023-11-23T16:58:41.883Z,2.53
2023-11-23T17:01:08.509Z,3.10
2023-11-23T17:03:35.455Z,2.97
2023-11-23T17:06:02.170Z,2.53
2023-11-23T17:08:29.132Z,2.90
2023-11-23T17:10:56.107Z,3.40
2023-11-23T17:13:24.451Z,2.75
2023-11-23T17:15:51.293Z,3.05
2023-11-23T17:18:21.313Z,2.28
2023-11-23T17:20:48.038Z,2.60
2023-11-23T17:23:16.341Z,2.60
2023-11-23T17:25:43.526Z,4.18
2023-11-23T17:28:12.127Z,2.70
2023-11-23T17:30:39.488Z,2.60
2023-11-23T17:33:06.161Z,3.03
2023-11-23T17:35:32.752Z,3.28
2023-11-23T17:37:59.389Z,3.83
2023-11-23T17:40:26.225Z,3.30
2023-11-23T17:42:52.927Z,3.45
2023-11-23T17:45:19.969Z,3.45
2023-11-23T17:47:46.746Z,3.33
2023-11-23T17:50:14.133Z,3.70
2023-11-23T17:52:41.643Z,3.60
2023-11-23T17:55:09.159Z,3.30
2023-11-23T17:57:36.607Z,3.28
2023-11-23T18:00:13.814Z,3.80
2023-11-23T18:02:41.731Z,2.67
2023-11-23T18:05:08.896Z,4.00
2023-11-23T18:07:35.598Z,3.30
2023-11-23T18:10:02.240Z,3.33
2023-11-23T18:12:28.858Z,3.85
2023-11-23T18:14:55.554Z,3.80
2023-11-23T18:17:22.128Z,4.53
2023-11-23T18:20:37.621Z,3.85
2023-11-23T18:23:04.395Z,3.55
2023-11-23T18:25:31.921Z,3.65
2023-11-23T18:27:58.519Z,3.83
2023-11-23T18:30:25.243Z,3.55
2023-11-23T18:32:52.031Z,3.05
2023-11-23T18:35:19.724Z,4.00
2023-11-23T18:37:46.459Z,3.60
2023-11-23T18:40:17.398Z,3.65
2023-11-23T18:42:45.860Z,3.60
2023-11-23T18:45:14.089Z,3.78
2023-11-23T18:47:40.987Z,3.67
2023-11-23T18:50:11.576Z,3.72
2023-11-23T18:52:39.319Z,3.97
2023-11-23T18:55:06.829Z,3.58
2023-11-23T18:57:33.737Z,4.32
2023-11-23T19:00:00.962Z,4.00
2023-11-23T19:02:27.719Z,4.30
2023-11-23T19:04:54.603Z,2.30
2023-11-23T19:07:21.226Z,4.72
2023-11-23T19:09:47.979Z,4.32
2023-11-23T19:12:14.761Z,3.33
2023-11-23T19:14:41.351Z,4.07
2023-11-23T19:17:08.005Z,4.40
2023-11-23T19:19:35.470Z,4.80
2023-11-23T19:22:03.327Z,4.50
2023-11-23T19:24:30.185Z,4.03
2023-11-23T19:26:57.159Z,4.47
2023-11-23T19:29:34.928Z,3.88
2023-11-23T19:32:09.797Z,4.88
2023-11-23T19:34:37.050Z,4.47
2023-11-23T19:37:05.204Z,5.10
2023-11-23T19:39:32.557Z,5.53
2023-11-23T19:42:00.008Z,4.82
2023-11-23T19:44:27.345Z,4.57
2023-11-23T19:46:54.357Z,4.32
2023-11-23T19:49:22.028Z,5.88
2023-11-23T19:51:49.815Z,5.35
2023-11-23T19:54:18.332Z,4.82
2023-11-23T19:56:44.973Z,5.40
2023-11-23T19:59:11.549Z,5.20
2023-11-23T20:01:41.200Z,4.47
2023-11-23T20:04:07.995Z,4.50
2023-11-23T20:06:35.952Z,4.68
2023-11-23T20:09:09.594Z,4.65
2023-11-23T20:11:37.786Z,4.80
2023-11-23T20:14:07.867Z,4.80
2023-11-23T20:16:34.619Z,4.85
2023-11-23T20:19:02.734Z,5.70
2023-11-23T20:21:29.485Z,4.85
2023-11-23T20:23:56.129Z,5.20
2023-11-23T20:26:23.100Z,4.75
2023-11-23T20:28:49.723Z,4.93
2023-11-23T20:31:17.906Z,5.32
2023-11-23T20:33:44.984Z,6.35
2023-11-23T20:36:11.712Z,4.10
2023-11-23T20:38:38.239Z,5.25
2023-11-23T20:41:06.497Z,5.80
2023-11-23T20:43:33.368Z,5.18
2023-11-23T20:46:00.235Z,5.45
2023-11-23T20:48:27.715Z,4.35
2023-11-23T20:50:54.602Z,5.68
2023-11-23T20:53:23.481Z,5.15
2023-11-23T20:55:50.298Z,4.90
2023-11-23T20:58:17.477Z,4.60
2023-11-23T21:00:44.454Z,4.60
2023-11-23T21:03:11.712Z,5.05
2023-11-23T21:05:38.574Z,5.30
2023-11-23T21:08:05.505Z,5.55
2023-11-23T21:10:32.342Z,5.00
2023-11-23T21:12:59.391Z,5.00
2023-11-23T21:15:26.062Z,4.50
2023-11-23T21:17:52.677Z,4.40
2023-11-23T21:20:19.284Z,4.50
2023-11-23T21:22:45.927Z,3.90
2023-11-23T21:25:13.544Z,2.97
2023-11-23T21:27:40.309Z,4.05
2023-11-23T21:30:10.497Z,5.22
2023-11-23T21:32:41.130Z,3.92
2023-11-23T21:35:09.275Z,2.50
2023-11-23T21:37:36.712Z,3.20
2023-11-23T21:40:03.741Z,4.55
2023-11-23T21:42:30.959Z,4.03
2023-11-23T21:44:57.823Z,4.05
2023-11-23T21:47:24.402Z,4.22
2023-11-23T21:49:51.244Z,5.30
2023-11-23T21:52:17.911Z,4.22
2023-11-23T21:54:50.664Z,3.65
2023-11-23T21:57:26.941Z,3.80
2023-11-23T21:59:53.540Z,3.90
2023-11-23T22:02:20.172Z,3.70
2023-11-23T22:04:47.357Z,3.95
2023-11-23T22:07:13.938Z,4.22
2023-11-23T22:09:40.714Z,3.55
2023-11-23T22:12:07.598Z,3.90
2023-11-23T22:14:34.205Z,4.13
2023-11-23T22:17:00.999Z,4.13
2023-11-23T22:19:27.847Z,3.53
2023-11-23T22:21:54.623Z,3.83
2023-11-23T22:24:21.683Z,3.92
2023-11-23T22:26:48.734Z,3.38
2023-11-23T22:29:15.586Z,5.13
2023-11-23T22:32:02.817Z,7.90
2023-11-23T22:34:29.661Z,3.08
2023-11-23T22:36:56.513Z,1.90
2023-11-23T22:39:23.402Z,1.75
2023-11-23T22:41:50.529Z,1.48
2023-11-23T22:44:17.585Z,1.92
2023-11-23T22:46:44.651Z,1.35
2023-11-23T22:49:11.282Z,1.15
2023-11-23T22:51:37.879Z,1.50
2023-11-23T22:54:04.599Z,1.15
2023-11-23T22:56:31.257Z,1.50
2023-11-23T22:58:57.988Z,1.20
2023-11-23T23:01:24.956Z,1.20
2023-11-23T23:03:51.708Z,1.08
2023-11-23T23:06:19.491Z,1.10
2023-11-23T23:08:47.158Z,1.20
2023-11-23T23:11:14.702Z,1.40
2023-11-23T23:13:41.433Z,1.38
2023-11-23T23:16:08.199Z,1.75
2023-11-23T23:18:34.842Z,1.25
2023-11-23T23:21:01.399Z,1.35
2023-11-23T23:23:28.078Z,1.80
2023-11-23T23:25:54.628Z,2.05
2023-11-23T23:28:29.525Z,1.30
2023-11-23T23:30:58.967Z,1.60
2023-11-23T23:33:25.643Z,1.10
2023-11-23T23:35:53.285Z,2.20
2023-11-23T23:38:20.456Z,1.60
2023-11-23T23:40:51.529Z,1.33
2023-11-23T23:43:18.834Z,1.60
2023-11-23T23:45:45.774Z,1.38
2023-11-23T23:48:12.441Z,1.83
2023-11-23T23:50:41.515Z,1.20
2023-11-23T23:53:08.239Z,0.98
2023-11-23T23:55:35.038Z,2.00
2023-11-23T23:58:04.011Z,1.35
